Aviation Digital Data Service (ADDS)

Output produced by METARs form (2023 UTC 17 November 2019)
found at http://www.aviationweather.gov/metar/data/
 
METAR text: UKBB 172000Z 10003MPS 050V120 0500 R36R/0600N R36L/0600 FG VV001 04/04 Q1027 R88/D BECMG 0400 FG
Conditions at: UKBB (BORISPOL'/KIEV , UA) observed 2000 UTC 17 November 2019
Temperature: 4.0°C (39°F)
Dewpoint: 4.0°C (39°F) [RH = 100%]
Pressure (altimeter): 30.32 inches Hg (1027.0 mb)
Winds: from the E (100 degrees) at 7 MPH (6 knots; 3.1 m/s)
Visibility: 0.31 miles (0.50 km)
Ceiling: indefinite ceiling with vertical visibility of 100 feet AGL
Clouds: obscured sky
Weather: FG  (fog)

METAR text: UKBB 171930Z 09002MPS 050V120 0900 0600E R36R/0700 R36L/0750 PRFG VV001 05/05 Q1027 R88/D TEMPO 0400 FG VV002
Conditions at: UKBB (BORISPOL'/KIEV , UA) observed 1930 UTC 17 November 2019
Temperature: 5.0°C (41°F)
Dewpoint: 5.0°C (41°F) [RH = 100%]
Pressure (altimeter): 30.32 inches Hg (1027.0 mb)
Winds: from the E (90 degrees) at 5 MPH (4 knots; 2.1 m/s)
Visibility: 0.56 miles (0.90 km)
Ceiling: indefinite ceiling with vertical visibility of 100 feet AGL
Clouds: obscured sky
Weather: PRFG  (partial fog)

METAR text: UKBB 171922Z 09002MPS 050V120 2000 0650SW R36R/1300D R36L/0750 PRFG BKN002 05/05 Q1027 R88/D TEMPO 0400 FG VV002
Conditions at: UKBB (BORISPOL'/KIEV , UA) observed 1922 UTC 17 November 2019
Temperature: 5.0°C (41°F)
Dewpoint: 5.0°C (41°F) [RH = 100%]
Pressure (altimeter): 30.32 inches Hg (1027.0 mb)
Winds: from the E (90 degrees) at 5 MPH (4 knots; 2.1 m/s)
Visibility: 1.24 miles (2.00 km)
Ceiling: 200 feet AGL
Clouds: broken clouds at 200 feet AGL
Weather: PRFG  (partial fog)

METAR text: UKBB 171900Z 10002MPS 3700 BR BKN002 04/03 Q1028 R88/D TEMPO 0400 FG VV002
Conditions at: UKBB (BORISPOL'/KIEV , UA) observed 1900 UTC 17 November 2019
Temperature: 4.0°C (39°F)
Dewpoint: 3.0°C (37°F) [RH = 93%]
Pressure (altimeter): 30.35 inches Hg (1028.0 mb)
Winds: from the E (100 degrees) at 5 MPH (4 knots; 2.1 m/s)
Visibility: 2.30 miles (3.70 km)
Ceiling: 200 feet AGL
Clouds: broken clouds at 200 feet AGL
Weather: BR  (mist)

METAR text: UKBB 171830Z 10002MPS 050V120 5000 BR FEW005 05/04 Q1028 R88/CLRD// TEMPO 1400 BR BKN004
Conditions at: UKBB (BORISPOL'/KIEV , UA) observed 1830 UTC 17 November 2019
Temperature: 5.0°C (41°F)
Dewpoint: 4.0°C (39°F) [RH = 93%]
Pressure (altimeter): 30.35 inches Hg (1028.0 mb)
Winds: from the E (100 degrees) at 5 MPH (4 knots; 2.1 m/s)
Visibility: 3 miles ( 5 km)
Ceiling: at least 12,000 feet AGL
Clouds: few clouds at 500 feet AGL
Weather: BR  (mist)

METAR text: UKBB 171800Z 11002MPS 060V130 6000 OVC006 06/05 Q1027 R88/CLRD// NOSIG
Conditions at: UKBB (BORISPOL'/KIEV , UA) observed 1800 UTC 17 November 2019
Temperature: 6.0°C (43°F)
Dewpoint: 5.0°C (41°F) [RH = 93%]
Pressure (altimeter): 30.32 inches Hg (1027.0 mb)
Winds: from the ESE (110 degrees) at 5 MPH (4 knots; 2.1 m/s)
Visibility: 4 miles ( 6 km)
Ceiling: 600 feet AGL
Clouds: overcast cloud deck at 600 feet AGL
Weather: no significant weather observed at this time

METAR text: UKBB 171730Z 13004MPS 100V160 8000 OVC006 07/06 Q1028 R88/D NOSIG
Conditions at: UKBB (BORISPOL'/KIEV , UA) observed 1730 UTC 17 November 2019
Temperature: 7.0°C (45°F)
Dewpoint: 6.0°C (43°F) [RH = 93%]
Pressure (altimeter): 30.35 inches Hg (1028.0 mb)
Winds: from the SE (130 degrees) at 9 MPH (8 knots; 4.1 m/s)
Visibility: 5 miles ( 8 km)
Ceiling: 600 feet AGL
Clouds: overcast cloud deck at 600 feet AGL
Weather: no significant weather observed at this time

METAR text: UKBB 171700Z 12004MPS 7000 OVC005 06/06 Q1027 R88/D NOSIG
Conditions at: UKBB (BORISPOL'/KIEV , UA) observed 1700 UTC 17 November 2019
Temperature: 6.0°C (43°F)
Dewpoint: 6.0°C (43°F) [RH = 100%]
Pressure (altimeter): 30.32 inches Hg (1027.0 mb)
Winds: from the ESE (120 degrees) at 9 MPH (8 knots; 4.1 m/s)
Visibility: 4 miles ( 7 km)
Ceiling: 500 feet AGL
Clouds: overcast cloud deck at 500 feet AGL
Weather: no significant weather observed at this time

METAR text: UKBB 171630Z 12005MPS 5000 BR OVC001 06/06 Q1028 R88/D NOSIG
Conditions at: UKBB (BORISPOL'/KIEV , UA) observed 1630 UTC 17 November 2019
Temperature: 6.0°C (43°F)
Dewpoint: 6.0°C (43°F) [RH = 100%]
Pressure (altimeter): 30.35 inches Hg (1028.0 mb)
Winds: from the ESE (120 degrees) at 12 MPH (10 knots; 5.1 m/s)
Visibility: 3 miles ( 5 km)
Ceiling: 100 feet AGL
Clouds: overcast cloud deck at 100 feet AGL
Weather: BR  (mist)

METAR text: UKBB 171616Z 10004MPS 1200 0900W R36R/1200U R36L/1400U PRFG OVC001 06/06 Q1028 R88/D BECMG 0400 FG
Conditions at: UKBB (BORISPOL'/KIEV , UA) observed 1616 UTC 17 November 2019
Temperature: 6.0°C (43°F)
Dewpoint: 6.0°C (43°F) [RH = 100%]
Pressure (altimeter): 30.35 inches Hg (1028.0 mb)
Winds: from the E (100 degrees) at 9 MPH (8 knots; 4.1 m/s)
Visibility: 0.75 miles (1.21 km)
Ceiling: 100 feet AGL
Clouds: overcast cloud deck at 100 feet AGL
Weather: PRFG  (partial fog)

METAR text: UKBB 171600Z 12005MPS 0650 0550SW R36R/0750N R36L/0650N FG VV001 07/06 Q1027 R88/CLRD// NOSIG
Conditions at: UKBB (BORISPOL'/KIEV , UA) observed 1600 UTC 17 November 2019
Temperature: 7.0°C (45°F)
Dewpoint: 6.0°C (43°F) [RH = 93%]
Pressure (altimeter): 30.32 inches Hg (1027.0 mb)
Winds: from the ESE (120 degrees) at 12 MPH (10 knots; 5.1 m/s)
Visibility: 0.40 miles (0.64 km)
Ceiling: indefinite ceiling with vertical visibility of 100 feet AGL
Clouds: obscured sky
Weather: FG  (fog)

METAR text: UKBB 171551Z 13005MPS 0650 0600S R36R/0750N R36L/0650 FG VV001 07/07 Q1027 R88/D NOSIG
Conditions at: UKBB (BORISPOL'/KIEV , UA) observed 1551 UTC 17 November 2019
Temperature: 7.0°C (45°F)
Dewpoint: 7.0°C (45°F) [RH = 100%]
Pressure (altimeter): 30.32 inches Hg (1027.0 mb)
Winds: from the SE (130 degrees) at 12 MPH (10 knots; 5.1 m/s)
Visibility: 0.40 miles (0.64 km)
Ceiling: indefinite ceiling with vertical visibility of 100 feet AGL
Clouds: obscured sky
Weather: FG  (fog)

METAR text: UKBB 171541Z 11005MPS 0750 0650SE R36R/0800N R36L/0800 FG VV001 07/07 Q1027 R88/D NOSIG
Conditions at: UKBB (BORISPOL'/KIEV , UA) observed 1541 UTC 17 November 2019
Temperature: 7.0°C (45°F)
Dewpoint: 7.0°C (45°F) [RH = 100%]
Pressure (altimeter): 30.32 inches Hg (1027.0 mb)
Winds: from the ESE (110 degrees) at 12 MPH (10 knots; 5.1 m/s)
Visibility: 0.47 miles (0.76 km)
Ceiling: indefinite ceiling with vertical visibility of 100 feet AGL
Clouds: obscured sky
Weather: FG  (fog)

METAR text: UKBB 171530Z 12004MPS 1100 0700S R18L/P2000N R18R/2000D PRFG OVC002 07/07 Q1027 R88/CLRD// NOSIG
Conditions at: UKBB (BORISPOL'/KIEV , UA) observed 1530 UTC 17 November 2019
Temperature: 7.0°C (45°F)
Dewpoint: 7.0°C (45°F) [RH = 100%]
Pressure (altimeter): 30.32 inches Hg (1027.0 mb)
Winds: from the ESE (120 degrees) at 9 MPH (8 knots; 4.1 m/s)
Visibility: 0.68 miles (1.09 km)
Ceiling: 200 feet AGL
Clouds: overcast cloud deck at 200 feet AGL
Weather: PRFG  (partial fog)

METAR text: UKBB 171500Z 13004MPS 5000 BR SCT002 OVC004 08/07 Q1027 R88/D BECMG 2000 BR
Conditions at: UKBB (BORISPOL'/KIEV , UA) observed 1500 UTC 17 November 2019
Temperature: 8.0°C (46°F)
Dewpoint: 7.0°C (45°F) [RH = 93%]
Pressure (altimeter): 30.32 inches Hg (1027.0 mb)
Winds: from the SE (130 degrees) at 9 MPH (8 knots; 4.1 m/s)
Visibility: 3 miles ( 5 km)
Ceiling: 400 feet AGL
Clouds: scattered clouds at 200 feet AGL
overcast cloud deck at 400 feet AGL
Weather: BR  (mist)

METAR text: UKBB 171430Z 13004MPS 5000 BR OVC004 08/07 Q1027 R88/D NOSIG
Conditions at: UKBB (BORISPOL'/KIEV , UA) observed 1430 UTC 17 November 2019
Temperature: 8.0°C (46°F)
Dewpoint: 7.0°C (45°F) [RH = 93%]
Pressure (altimeter): 30.32 inches Hg (1027.0 mb)
Winds: from the SE (130 degrees) at 9 MPH (8 knots; 4.1 m/s)
Visibility: 3 miles ( 5 km)
Ceiling: 400 feet AGL
Clouds: overcast cloud deck at 400 feet AGL
Weather: BR  (mist)

METAR text: UKBB 171400Z 13005MPS 5000 BR SCT004 OVC009 08/07 Q1027 R88/D NOSIG
Conditions at: UKBB (BORISPOL'/KIEV , UA) observed 1400 UTC 17 November 2019
Temperature: 8.0°C (46°F)
Dewpoint: 7.0°C (45°F) [RH = 93%]
Pressure (altimeter): 30.32 inches Hg (1027.0 mb)
Winds: from the SE (130 degrees) at 12 MPH (10 knots; 5.1 m/s)
Visibility: 3 miles ( 5 km)
Ceiling: 900 feet AGL
Clouds: scattered clouds at 400 feet AGL
overcast cloud deck at 900 feet AGL
Weather: BR  (mist)

METAR text: UKBB 171330Z 14005MPS 7000 SCT006 OVC012 09/07 Q1027 R88/D NOSIG
Conditions at: UKBB (BORISPOL'/KIEV , UA) observed 1330 UTC 17 November 2019
Temperature: 9.0°C (48°F)
Dewpoint: 7.0°C (45°F) [RH = 87%]
Pressure (altimeter): 30.32 inches Hg (1027.0 mb)
Winds: from the SE (140 degrees) at 12 MPH (10 knots; 5.1 m/s)
Visibility: 4 miles ( 7 km)
Ceiling: 1200 feet AGL
Clouds: scattered clouds at 600 feet AGL
overcast cloud deck at 1200 feet AGL
Weather: no significant weather observed at this time

METAR text: UKBB 171300Z 13005MPS 8000 FEW006 OVC012 09/08 Q1027 R88/CLRD// NOSIG
Conditions at: UKBB (BORISPOL'/KIEV , UA) observed 1300 UTC 17 November 2019
Temperature: 9.0°C (48°F)
Dewpoint: 8.0°C (46°F) [RH = 93%]
Pressure (altimeter): 30.32 inches Hg (1027.0 mb)
Winds: from the SE (130 degrees) at 12 MPH (10 knots; 5.1 m/s)
Visibility: 5 miles ( 8 km)
Ceiling: 1200 feet AGL
Clouds: few clouds at 600 feet AGL
overcast cloud deck at 1200 feet AGL
Weather: no significant weather observed at this time

METAR text: UKBB 171230Z 14005MPS 9000 FEW009 BKN020 10/08 Q1027 R88/CLRD// NOSIG
Conditions at: UKBB (BORISPOL'/KIEV , UA) observed 1230 UTC 17 November 2019
Temperature: 10.0°C (50°F)
Dewpoint: 8.0°C (46°F) [RH = 87%]
Pressure (altimeter): 30.32 inches Hg (1027.0 mb)
Winds: from the SE (140 degrees) at 12 MPH (10 knots; 5.1 m/s)
Visibility: 6 miles ( 9 km)
Ceiling: 2000 feet AGL
Clouds: few clouds at 900 feet AGL
broken clouds at 2000 feet AGL
Weather: no significant weather observed at this time

METAR text: UKBB 171200Z 14005MPS 7000 FEW009 BKN020 10/08 Q1027 R88/D NOSIG
Conditions at: UKBB (BORISPOL'/KIEV , UA) observed 1200 UTC 17 November 2019
Temperature: 10.0°C (50°F)
Dewpoint: 8.0°C (46°F) [RH = 87%]
Pressure (altimeter): 30.32 inches Hg (1027.0 mb)
Winds: from the SE (140 degrees) at 12 MPH (10 knots; 5.1 m/s)
Visibility: 4 miles ( 7 km)
Ceiling: 2000 feet AGL
Clouds: few clouds at 900 feet AGL
broken clouds at 2000 feet AGL
Weather: no significant weather observed at this time

METAR text: UKBB 171130Z 13005MPS 6000 OVC030 10/08 Q1027 R88/D NOSIG
Conditions at: UKBB (BORISPOL'/KIEV , UA) observed 1130 UTC 17 November 2019
Temperature: 10.0°C (50°F)
Dewpoint: 8.0°C (46°F) [RH = 87%]
Pressure (altimeter): 30.32 inches Hg (1027.0 mb)
Winds: from the SE (130 degrees) at 12 MPH (10 knots; 5.1 m/s)
Visibility: 4 miles ( 6 km)
Ceiling: 3000 feet AGL
Clouds: overcast cloud deck at 3000 feet AGL
Weather: no significant weather observed at this time

METAR text: UKBB 171100Z 14005MPS 7000 OVC030 10/08 Q1028 R88/D NOSIG
Conditions at: UKBB (BORISPOL'/KIEV , UA) observed 1100 UTC 17 November 2019
Temperature: 10.0°C (50°F)
Dewpoint: 8.0°C (46°F) [RH = 87%]
Pressure (altimeter): 30.35 inches Hg (1028.0 mb)
Winds: from the SE (140 degrees) at 12 MPH (10 knots; 5.1 m/s)
Visibility: 4 miles ( 7 km)
Ceiling: 3000 feet AGL
Clouds: overcast cloud deck at 3000 feet AGL
Weather: no significant weather observed at this time

METAR text: UKBB 171030Z 13005MPS 8000 FEW010 BKN022 10/08 Q1028 R88/CLRD// NOSIG
Conditions at: UKBB (BORISPOL'/KIEV , UA) observed 1030 UTC 17 November 2019
Temperature: 10.0°C (50°F)
Dewpoint: 8.0°C (46°F) [RH = 87%]
Pressure (altimeter): 30.35 inches Hg (1028.0 mb)
Winds: from the SE (130 degrees) at 12 MPH (10 knots; 5.1 m/s)
Visibility: 5 miles ( 8 km)
Ceiling: 2200 feet AGL
Clouds: few clouds at 1000 feet AGL
broken clouds at 2200 feet AGL
Weather: no significant weather observed at this time

METAR text: UKBB 171000Z 13004MPS 8000 FEW008 BKN014 11/09 Q1028 R88/D NOSIG
Conditions at: UKBB (BORISPOL'/KIEV , UA) observed 1000 UTC 17 November 2019
Temperature: 11.0°C (52°F)
Dewpoint: 9.0°C (48°F) [RH = 87%]
Pressure (altimeter): 30.35 inches Hg (1028.0 mb)
Winds: from the SE (130 degrees) at 9 MPH (8 knots; 4.1 m/s)
Visibility: 5 miles ( 8 km)
Ceiling: 1400 feet AGL
Clouds: few clouds at 800 feet AGL
broken clouds at 1400 feet AGL
Weather: no significant weather observed at this time

METAR text: UKBB 170930Z 13004MPS 7000 FEW008 BKN014 10/09 Q1028 R88/CLRD// NOSIG
Conditions at: UKBB (BORISPOL'/KIEV , UA) observed 0930 UTC 17 November 2019
Temperature: 10.0°C (50°F)
Dewpoint: 9.0°C (48°F) [RH = 93%]
Pressure (altimeter): 30.35 inches Hg (1028.0 mb)
Winds: from the SE (130 degrees) at 9 MPH (8 knots; 4.1 m/s)
Visibility: 4 miles ( 7 km)
Ceiling: 1400 feet AGL
Clouds: few clouds at 800 feet AGL
broken clouds at 1400 feet AGL
Weather: no significant weather observed at this time

METAR text: UKBB 170900Z 12004MPS 8000 FEW012 BKN032 11/09 Q1028 R88/CLRD// NOSIG
Conditions at: UKBB (BORISPOL'/KIEV , UA) observed 0900 UTC 17 November 2019
Temperature: 11.0°C (52°F)
Dewpoint: 9.0°C (48°F) [RH = 87%]
Pressure (altimeter): 30.35 inches Hg (1028.0 mb)
Winds: from the ESE (120 degrees) at 9 MPH (8 knots; 4.1 m/s)
Visibility: 5 miles ( 8 km)
Ceiling: 3200 feet AGL
Clouds: few clouds at 1200 feet AGL
broken clouds at 3200 feet AGL
Weather: no significant weather observed at this time

METAR text: UKBB 170830Z 12003MPS 8000 FEW012 BKN032 10/08 Q1028 R88/CLRD// NOSIG
Conditions at: UKBB (BORISPOL'/KIEV , UA) observed 0830 UTC 17 November 2019
Temperature: 10.0°C (50°F)
Dewpoint: 8.0°C (46°F) [RH = 87%]
Pressure (altimeter): 30.35 inches Hg (1028.0 mb)
Winds: from the ESE (120 degrees) at 7 MPH (6 knots; 3.1 m/s)
Visibility: 5 miles ( 8 km)
Ceiling: 3200 feet AGL
Clouds: few clouds at 1200 feet AGL
broken clouds at 3200 feet AGL
Weather: no significant weather observed at this time

METAR text: UKBB 170800Z 13002MPS 100V160 7000 OVC036 10/08 Q1028 R88/D NOSIG
Conditions at: UKBB (BORISPOL'/KIEV , UA) observed 0800 UTC 17 November 2019
Temperature: 10.0°C (50°F)
Dewpoint: 8.0°C (46°F) [RH = 87%]
Pressure (altimeter): 30.35 inches Hg (1028.0 mb)
Winds: from the SE (130 degrees) at 5 MPH (4 knots; 2.1 m/s)
Visibility: 4 miles ( 7 km)
Ceiling: 3600 feet AGL
Clouds: overcast cloud deck at 3600 feet AGL
Weather: no significant weather observed at this time

METAR text: UKBB 170730Z 14003MPS 6000 OVC032 09/08 Q1028 R88/CLRD// NOSIG
Conditions at: UKBB (BORISPOL'/KIEV , UA) observed 0730 UTC 17 November 2019
Temperature: 9.0°C (48°F)
Dewpoint: 8.0°C (46°F) [RH = 93%]
Pressure (altimeter): 30.35 inches Hg (1028.0 mb)
Winds: from the SE (140 degrees) at 7 MPH (6 knots; 3.1 m/s)
Visibility: 4 miles ( 6 km)
Ceiling: 3200 feet AGL
Clouds: overcast cloud deck at 3200 feet AGL
Weather: no significant weather observed at this time

METAR text: UKBB 170700Z 14003MPS 6000 OVC032 09/08 Q1028 R88/D NOSIG
Conditions at: UKBB (BORISPOL'/KIEV , UA) observed 0700 UTC 17 November 2019
Temperature: 9.0°C (48°F)
Dewpoint: 8.0°C (46°F) [RH = 93%]
Pressure (altimeter): 30.35 inches Hg (1028.0 mb)
Winds: from the SE (140 degrees) at 7 MPH (6 knots; 3.1 m/s)
Visibility: 4 miles ( 6 km)
Ceiling: 3200 feet AGL
Clouds: overcast cloud deck at 3200 feet AGL
Weather: no significant weather observed at this time

METAR text: UKBB 170630Z 13003MPS 5000 BR OVC032 08/07 Q1027 R88/CLRD// NOSIG
Conditions at: UKBB (BORISPOL'/KIEV , UA) observed 0630 UTC 17 November 2019
Temperature: 8.0°C (46°F)
Dewpoint: 7.0°C (45°F) [RH = 93%]
Pressure (altimeter): 30.32 inches Hg (1027.0 mb)
Winds: from the SE (130 degrees) at 7 MPH (6 knots; 3.1 m/s)
Visibility: 3 miles ( 5 km)
Ceiling: 3200 feet AGL
Clouds: overcast cloud deck at 3200 feet AGL
Weather: BR  (mist)

METAR text: UKBB 170600Z 13003MPS 5000 BR OVC032 08/07 Q1027 R88/D NOSIG
Conditions at: UKBB (BORISPOL'/KIEV , UA) observed 0600 UTC 17 November 2019
Temperature: 8.0°C (46°F)
Dewpoint: 7.0°C (45°F) [RH = 93%]
Pressure (altimeter): 30.32 inches Hg (1027.0 mb)
Winds: from the SE (130 degrees) at 7 MPH (6 knots; 3.1 m/s)
Visibility: 3 miles ( 5 km)
Ceiling: 3200 feet AGL
Clouds: overcast cloud deck at 3200 feet AGL
Weather: BR  (mist)

METAR text: UKBB 170530Z 14003MPS 5000 BR OVC032 08/07 Q1027 R88/CLRD// NOSIG
Conditions at: UKBB (BORISPOL'/KIEV , UA) observed 0530 UTC 17 November 2019
Temperature: 8.0°C (46°F)
Dewpoint: 7.0°C (45°F) [RH = 93%]
Pressure (altimeter): 30.32 inches Hg (1027.0 mb)
Winds: from the SE (140 degrees) at 7 MPH (6 knots; 3.1 m/s)
Visibility: 3 miles ( 5 km)
Ceiling: 3200 feet AGL
Clouds: overcast cloud deck at 3200 feet AGL
Weather: BR  (mist)

METAR text: UKBB 170500Z 13003MPS 7000 OVC032 08/07 Q1027 R88/D NOSIG
Conditions at: UKBB (BORISPOL'/KIEV , UA) observed 0500 UTC 17 November 2019
Temperature: 8.0°C (46°F)
Dewpoint: 7.0°C (45°F) [RH = 93%]
Pressure (altimeter): 30.32 inches Hg (1027.0 mb)
Winds: from the SE (130 degrees) at 7 MPH (6 knots; 3.1 m/s)
Visibility: 4 miles ( 7 km)
Ceiling: 3200 feet AGL
Clouds: overcast cloud deck at 3200 feet AGL
Weather: no significant weather observed at this time

METAR text: UKBB 170430Z 13003MPS 8000 OVC036 08/07 Q1027 R88/D NOSIG
Conditions at: UKBB (BORISPOL'/KIEV , UA) observed 0430 UTC 17 November 2019
Temperature: 8.0°C (46°F)
Dewpoint: 7.0°C (45°F) [RH = 93%]
Pressure (altimeter): 30.32 inches Hg (1027.0 mb)
Winds: from the SE (130 degrees) at 7 MPH (6 knots; 3.1 m/s)
Visibility: 5 miles ( 8 km)
Ceiling: 3600 feet AGL
Clouds: overcast cloud deck at 3600 feet AGL
Weather: no significant weather observed at this time

METAR text: UKBB 170400Z 13002MPS 8000 OVC036 08/07 Q1027 R88/D NOSIG
Conditions at: UKBB (BORISPOL'/KIEV , UA) observed 0400 UTC 17 November 2019
Temperature: 8.0°C (46°F)
Dewpoint: 7.0°C (45°F) [RH = 93%]
Pressure (altimeter): 30.32 inches Hg (1027.0 mb)
Winds: from the SE (130 degrees) at 5 MPH (4 knots; 2.1 m/s)
Visibility: 5 miles ( 8 km)
Ceiling: 3600 feet AGL
Clouds: overcast cloud deck at 3600 feet AGL
Weather: no significant weather observed at this time

METAR text: UKBB 170330Z 14003MPS 8000 OVC036 08/07 Q1027 R88/CLRD// NOSIG
Conditions at: UKBB (BORISPOL'/KIEV , UA) observed 0330 UTC 17 November 2019
Temperature: 8.0°C (46°F)
Dewpoint: 7.0°C (45°F) [RH = 93%]
Pressure (altimeter): 30.32 inches Hg (1027.0 mb)
Winds: from the SE (140 degrees) at 7 MPH (6 knots; 3.1 m/s)
Visibility: 5 miles ( 8 km)
Ceiling: 3600 feet AGL
Clouds: overcast cloud deck at 3600 feet AGL
Weather: no significant weather observed at this time

METAR text: UKBB 170300Z 13003MPS 8000 OVC036 08/07 Q1027 R88/D NOSIG
Conditions at: UKBB (BORISPOL'/KIEV , UA) observed 0300 UTC 17 November 2019
Temperature: 8.0°C (46°F)
Dewpoint: 7.0°C (45°F) [RH = 93%]
Pressure (altimeter): 30.32 inches Hg (1027.0 mb)
Winds: from the SE (130 degrees) at 7 MPH (6 knots; 3.1 m/s)
Visibility: 5 miles ( 8 km)
Ceiling: 3600 feet AGL
Clouds: overcast cloud deck at 3600 feet AGL
Weather: no significant weather observed at this time

METAR text: UKBB 170230Z 14003MPS 9000 OVC014 08/07 Q1027 R88/D NOSIG
Conditions at: UKBB (BORISPOL'/KIEV , UA) observed 0230 UTC 17 November 2019
Temperature: 8.0°C (46°F)
Dewpoint: 7.0°C (45°F) [RH = 93%]
Pressure (altimeter): 30.32 inches Hg (1027.0 mb)
Winds: from the SE (140 degrees) at 7 MPH (6 knots; 3.1 m/s)
Visibility: 6 miles ( 9 km)
Ceiling: 1400 feet AGL
Clouds: overcast cloud deck at 1400 feet AGL
Weather: no significant weather observed at this time

METAR text: UKBB 170200Z 14003MPS 9000 OVC014 09/07 Q1027 R88/D NOSIG
Conditions at: UKBB (BORISPOL'/KIEV , UA) observed 0200 UTC 17 November 2019
Temperature: 9.0°C (48°F)
Dewpoint: 7.0°C (45°F) [RH = 87%]
Pressure (altimeter): 30.32 inches Hg (1027.0 mb)
Winds: from the SE (140 degrees) at 7 MPH (6 knots; 3.1 m/s)
Visibility: 6 miles ( 9 km)
Ceiling: 1400 feet AGL
Clouds: overcast cloud deck at 1400 feet AGL
Weather: no significant weather observed at this time

METAR text: UKBB 170130Z 14003MPS 9000 OVC014 09/07 Q1027 R88/D NOSIG
Conditions at: UKBB (BORISPOL'/KIEV , UA) observed 0130 UTC 17 November 2019
Temperature: 9.0°C (48°F)
Dewpoint: 7.0°C (45°F) [RH = 87%]
Pressure (altimeter): 30.32 inches Hg (1027.0 mb)
Winds: from the SE (140 degrees) at 7 MPH (6 knots; 3.1 m/s)
Visibility: 6 miles ( 9 km)
Ceiling: 1400 feet AGL
Clouds: overcast cloud deck at 1400 feet AGL
Weather: no significant weather observed at this time

METAR text: UKBB 170100Z 14003MPS 9000 OVC014 09/07 Q1027 R88/D NOSIG
Conditions at: UKBB (BORISPOL'/KIEV , UA) observed 0100 UTC 17 November 2019
Temperature: 9.0°C (48°F)
Dewpoint: 7.0°C (45°F) [RH = 87%]
Pressure (altimeter): 30.32 inches Hg (1027.0 mb)
Winds: from the SE (140 degrees) at 7 MPH (6 knots; 3.1 m/s)
Visibility: 6 miles ( 9 km)
Ceiling: 1400 feet AGL
Clouds: overcast cloud deck at 1400 feet AGL
Weather: no significant weather observed at this time

METAR text: UKBB 170030Z 13003MPS 9000 OVC016 09/07 Q1026 R88/CLRD// NOSIG
Conditions at: UKBB (BORISPOL'/KIEV , UA) observed 0030 UTC 17 November 2019
Temperature: 9.0°C (48°F)
Dewpoint: 7.0°C (45°F) [RH = 87%]
Pressure (altimeter): 30.30 inches Hg (1026.0 mb)
Winds: from the SE (130 degrees) at 7 MPH (6 knots; 3.1 m/s)
Visibility: 6 miles ( 9 km)
Ceiling: 1600 feet AGL
Clouds: overcast cloud deck at 1600 feet AGL
Weather: no significant weather observed at this time

METAR text: UKBB 170000Z 14003MPS 9000 OVC016 08/07 Q1026 R88/D NOSIG
Conditions at: UKBB (BORISPOL'/KIEV , UA) observed 0000 UTC 17 November 2019
Temperature: 8.0°C (46°F)
Dewpoint: 7.0°C (45°F) [RH = 93%]
Pressure (altimeter): 30.30 inches Hg (1026.0 mb)
Winds: from the SE (140 degrees) at 7 MPH (6 knots; 3.1 m/s)
Visibility: 6 miles ( 9 km)
Ceiling: 1600 feet AGL
Clouds: overcast cloud deck at 1600 feet AGL
Weather: no significant weather observed at this time

METAR text: UKBB 162330Z 14003MPS 9000 OVC018 09/07 Q1026 R88/CLRD// NOSIG
Conditions at: UKBB (BORISPOL'/KIEV , UA) observed 2330 UTC 16 November 2019
Temperature: 9.0°C (48°F)
Dewpoint: 7.0°C (45°F) [RH = 87%]
Pressure (altimeter): 30.30 inches Hg (1026.0 mb)
Winds: from the SE (140 degrees) at 7 MPH (6 knots; 3.1 m/s)
Visibility: 6 miles ( 9 km)
Ceiling: 1800 feet AGL
Clouds: overcast cloud deck at 1800 feet AGL
Weather: no significant weather observed at this time

METAR text: UKBB 162300Z 14003MPS 9000 SCT018 BKN040 09/07 Q1026 R88/D NOSIG
Conditions at: UKBB (BORISPOL'/KIEV , UA) observed 2300 UTC 16 November 2019
Temperature: 9.0°C (48°F)
Dewpoint: 7.0°C (45°F) [RH = 87%]
Pressure (altimeter): 30.30 inches Hg (1026.0 mb)
Winds: from the SE (140 degrees) at 7 MPH (6 knots; 3.1 m/s)
Visibility: 6 miles ( 9 km)
Ceiling: 4000 feet AGL
Clouds: scattered clouds at 1800 feet AGL
broken clouds at 4000 feet AGL
Weather: no significant weather observed at this time

METAR text: UKBB 162230Z 13003MPS 9000 SCT022 BKN040 09/07 Q1026 R88/D NOSIG
Conditions at: UKBB (BORISPOL'/KIEV , UA) observed 2230 UTC 16 November 2019
Temperature: 9.0°C (48°F)
Dewpoint: 7.0°C (45°F) [RH = 87%]
Pressure (altimeter): 30.30 inches Hg (1026.0 mb)
Winds: from the SE (130 degrees) at 7 MPH (6 knots; 3.1 m/s)
Visibility: 6 miles ( 9 km)
Ceiling: 4000 feet AGL
Clouds: scattered clouds at 2200 feet AGL
broken clouds at 4000 feet AGL
Weather: no significant weather observed at this time

METAR text: UKBB 162200Z 14002MPS 9000 SCT022 BKN040 08/07 Q1026 R88/D NOSIG
Conditions at: UKBB (BORISPOL'/KIEV , UA) observed 2200 UTC 16 November 2019
Temperature: 8.0°C (46°F)
Dewpoint: 7.0°C (45°F) [RH = 93%]
Pressure (altimeter): 30.30 inches Hg (1026.0 mb)
Winds: from the SE (140 degrees) at 5 MPH (4 knots; 2.1 m/s)
Visibility: 6 miles ( 9 km)
Ceiling: 4000 feet AGL
Clouds: scattered clouds at 2200 feet AGL
broken clouds at 4000 feet AGL
Weather: no significant weather observed at this time

METAR text: UKBB 162130Z 13002MPS 8000 OVC040 08/07 Q1026 R88/CLRD// NOSIG
Conditions at: UKBB (BORISPOL'/KIEV , UA) observed 2130 UTC 16 November 2019
Temperature: 8.0°C (46°F)
Dewpoint: 7.0°C (45°F) [RH = 93%]
Pressure (altimeter): 30.30 inches Hg (1026.0 mb)
Winds: from the SE (130 degrees) at 5 MPH (4 knots; 2.1 m/s)
Visibility: 5 miles ( 8 km)
Ceiling: 4000 feet AGL
Clouds: overcast cloud deck at 4000 feet AGL
Weather: no significant weather observed at this time

METAR text: UKBB 162100Z 14002MPS 110V170 8000 FEW007 OVC036 08/07 Q1026 R88/D NOSIG
Conditions at: UKBB (BORISPOL'/KIEV , UA) observed 2100 UTC 16 November 2019
Temperature: 8.0°C (46°F)
Dewpoint: 7.0°C (45°F) [RH = 93%]
Pressure (altimeter): 30.30 inches Hg (1026.0 mb)
Winds: from the SE (140 degrees) at 5 MPH (4 knots; 2.1 m/s)
Visibility: 5 miles ( 8 km)
Ceiling: 3600 feet AGL
Clouds: few clouds at 700 feet AGL
overcast cloud deck at 3600 feet AGL
Weather: no significant weather observed at this time

METAR text: UKBB 162030Z 13004MPS 8000 FEW006 OVC036 08/07 Q1026 R88/CLRD// NOSIG
Conditions at: UKBB (BORISPOL'/KIEV , UA) observed 2030 UTC 16 November 2019
Temperature: 8.0°C (46°F)
Dewpoint: 7.0°C (45°F) [RH = 93%]
Pressure (altimeter): 30.30 inches Hg (1026.0 mb)
Winds: from the SE (130 degrees) at 9 MPH (8 knots; 4.1 m/s)
Visibility: 5 miles ( 8 km)
Ceiling: 3600 feet AGL
Clouds: few clouds at 600 feet AGL
overcast cloud deck at 3600 feet AGL
Weather: no significant weather observed at this time

METAR text: UKBB 162000Z 13004MPS 8000 FEW006 OVC032 08/07 Q1026 R88/D NOSIG
Conditions at: UKBB (BORISPOL'/KIEV , UA) observed 2000 UTC 16 November 2019
Temperature: 8.0°C (46°F)
Dewpoint: 7.0°C (45°F) [RH = 93%]
Pressure (altimeter): 30.30 inches Hg (1026.0 mb)
Winds: from the SE (130 degrees) at 9 MPH (8 knots; 4.1 m/s)
Visibility: 5 miles ( 8 km)
Ceiling: 3200 feet AGL
Clouds: few clouds at 600 feet AGL
overcast cloud deck at 3200 feet AGL
Weather: no significant weather observed at this time

METAR text: UKBB 161930Z 14005MPS 8000 FEW006 OVC032 08/07 Q1026 R88/CLRD// NOSIG
Conditions at: UKBB (BORISPOL'/KIEV , UA) observed 1930 UTC 16 November 2019
Temperature: 8.0°C (46°F)
Dewpoint: 7.0°C (45°F) [RH = 93%]
Pressure (altimeter): 30.30 inches Hg (1026.0 mb)
Winds: from the SE (140 degrees) at 12 MPH (10 knots; 5.1 m/s)
Visibility: 5 miles ( 8 km)
Ceiling: 3200 feet AGL
Clouds: few clouds at 600 feet AGL
overcast cloud deck at 3200 feet AGL
Weather: no significant weather observed at this time

METAR text: UKBB 161900Z 13005MPS 8000 OVC032 08/07 Q1026 R88/D NOSIG
Conditions at: UKBB (BORISPOL'/KIEV , UA) observed 1900 UTC 16 November 2019
Temperature: 8.0°C (46°F)
Dewpoint: 7.0°C (45°F) [RH = 93%]
Pressure (altimeter): 30.30 inches Hg (1026.0 mb)
Winds: from the SE (130 degrees) at 12 MPH (10 knots; 5.1 m/s)
Visibility: 5 miles ( 8 km)
Ceiling: 3200 feet AGL
Clouds: overcast cloud deck at 3200 feet AGL
Weather: no significant weather observed at this time

METAR text: UKBB 161830Z 14005MPS 8000 FEW007 OVC024 08/07 Q1026 R88/CLRD// NOSIG
Conditions at: UKBB (BORISPOL'/KIEV , UA) observed 1830 UTC 16 November 2019
Temperature: 8.0°C (46°F)
Dewpoint: 7.0°C (45°F) [RH = 93%]
Pressure (altimeter): 30.30 inches Hg (1026.0 mb)
Winds: from the SE (140 degrees) at 12 MPH (10 knots; 5.1 m/s)
Visibility: 5 miles ( 8 km)
Ceiling: 2400 feet AGL
Clouds: few clouds at 700 feet AGL
overcast cloud deck at 2400 feet AGL
Weather: no significant weather observed at this time

METAR text: UKBB 161800Z 14005MPS 9000 OVC028 09/07 Q1026 R88/D NOSIG
Conditions at: UKBB (BORISPOL'/KIEV , UA) observed 1800 UTC 16 November 2019
Temperature: 9.0°C (48°F)
Dewpoint: 7.0°C (45°F) [RH = 87%]
Pressure (altimeter): 30.30 inches Hg (1026.0 mb)
Winds: from the SE (140 degrees) at 12 MPH (10 knots; 5.1 m/s)
Visibility: 6 miles ( 9 km)
Ceiling: 2800 feet AGL
Clouds: overcast cloud deck at 2800 feet AGL
Weather: no significant weather observed at this time

METAR text: UKBB 161730Z 14004MPS 9000 OVC024 09/07 Q1026 R88/D NOSIG
Conditions at: UKBB (BORISPOL'/KIEV , UA) observed 1730 UTC 16 November 2019
Temperature: 9.0°C (48°F)
Dewpoint: 7.0°C (45°F) [RH = 87%]
Pressure (altimeter): 30.30 inches Hg (1026.0 mb)
Winds: from the SE (140 degrees) at 9 MPH (8 knots; 4.1 m/s)
Visibility: 6 miles ( 9 km)
Ceiling: 2400 feet AGL
Clouds: overcast cloud deck at 2400 feet AGL
Weather: no significant weather observed at this time

METAR text: UKBB 161700Z 14005MPS 9999 OVC024 09/07 Q1026 R88/D NOSIG
Conditions at: UKBB (BORISPOL'/KIEV , UA) observed 1700 UTC 16 November 2019
Temperature: 9.0°C (48°F)
Dewpoint: 7.0°C (45°F) [RH = 87%]
Pressure (altimeter): 30.30 inches Hg (1026.0 mb)
Winds: from the SE (140 degrees) at 12 MPH (10 knots; 5.1 m/s)
Visibility: 6 or more miles (10+ km)
Ceiling: 2400 feet AGL
Clouds: overcast cloud deck at 2400 feet AGL
Weather: no significant weather observed at this time

METAR text: UKBB 161630Z 14004MPS 9999 OVC024 09/07 Q1026 R88/D NOSIG
Conditions at: UKBB (BORISPOL'/KIEV , UA) observed 1630 UTC 16 November 2019
Temperature: 9.0°C (48°F)
Dewpoint: 7.0°C (45°F) [RH = 87%]
Pressure (altimeter): 30.30 inches Hg (1026.0 mb)
Winds: from the SE (140 degrees) at 9 MPH (8 knots; 4.1 m/s)
Visibility: 6 or more miles (10+ km)
Ceiling: 2400 feet AGL
Clouds: overcast cloud deck at 2400 feet AGL
Weather: no significant weather observed at this time

METAR text: UKBB 161600Z 14004MPS 9999 OVC024 09/07 Q1026 R88/CLRD// NOSIG
Conditions at: UKBB (BORISPOL'/KIEV , UA) observed 1600 UTC 16 November 2019
Temperature: 9.0°C (48°F)
Dewpoint: 7.0°C (45°F) [RH = 87%]
Pressure (altimeter): 30.30 inches Hg (1026.0 mb)
Winds: from the SE (140 degrees) at 9 MPH (8 knots; 4.1 m/s)
Visibility: 6 or more miles (10+ km)
Ceiling: 2400 feet AGL
Clouds: overcast cloud deck at 2400 feet AGL
Weather: no significant weather observed at this time

METAR text: UKBB 161530Z 14004MPS 9999 OVC028 09/07 Q1026 R88/D NOSIG
Conditions at: UKBB (BORISPOL'/KIEV , UA) observed 1530 UTC 16 November 2019
Temperature: 9.0°C (48°F)
Dewpoint: 7.0°C (45°F) [RH = 87%]
Pressure (altimeter): 30.30 inches Hg (1026.0 mb)
Winds: from the SE (140 degrees) at 9 MPH (8 knots; 4.1 m/s)
Visibility: 6 or more miles (10+ km)
Ceiling: 2800 feet AGL
Clouds: overcast cloud deck at 2800 feet AGL
Weather: no significant weather observed at this time

METAR text: UKBB 161500Z 14004MPS 9999 OVC030 09/07 Q1025 R18L/CLRD// R18R/290050 NOSIG
Conditions at: UKBB (BORISPOL'/KIEV , UA) observed 1500 UTC 16 November 2019
Temperature: 9.0°C (48°F)
Dewpoint: 7.0°C (45°F) [RH = 87%]
Pressure (altimeter): 30.27 inches Hg (1025.0 mb)
Winds: from the SE (140 degrees) at 9 MPH (8 knots; 4.1 m/s)
Visibility: 6 or more miles (10+ km)
Ceiling: 3000 feet AGL
Clouds: overcast cloud deck at 3000 feet AGL
Weather: no significant weather observed at this time

METAR text: UKBB 161430Z 14005MPS 9999 OVC032 10/07 Q1025 R18L/CLRD// R18R/290050 NOSIG
Conditions at: UKBB (BORISPOL'/KIEV , UA) observed 1430 UTC 16 November 2019
Temperature: 10.0°C (50°F)
Dewpoint: 7.0°C (45°F) [RH = 82%]
Pressure (altimeter): 30.27 inches Hg (1025.0 mb)
Winds: from the SE (140 degrees) at 12 MPH (10 knots; 5.1 m/s)
Visibility: 6 or more miles (10+ km)
Ceiling: 3200 feet AGL
Clouds: overcast cloud deck at 3200 feet AGL
Weather: no significant weather observed at this time

METAR text: UKBB 161400Z 14004MPS 9999 OVC030 10/07 Q1025 R18L/CLRD// R18R/290050 NOSIG
Conditions at: UKBB (BORISPOL'/KIEV , UA) observed 1400 UTC 16 November 2019
Temperature: 10.0°C (50°F)
Dewpoint: 7.0°C (45°F) [RH = 82%]
Pressure (altimeter): 30.27 inches Hg (1025.0 mb)
Winds: from the SE (140 degrees) at 9 MPH (8 knots; 4.1 m/s)
Visibility: 6 or more miles (10+ km)
Ceiling: 3000 feet AGL
Clouds: overcast cloud deck at 3000 feet AGL
Weather: no significant weather observed at this time

METAR text: UKBB 161330Z 13004MPS 9999 OVC030 10/08 Q1025 R18L/CLRD// R18R/290050 NOSIG
Conditions at: UKBB (BORISPOL'/KIEV , UA) observed 1330 UTC 16 November 2019
Temperature: 10.0°C (50°F)
Dewpoint: 8.0°C (46°F) [RH = 87%]
Pressure (altimeter): 30.27 inches Hg (1025.0 mb)
Winds: from the SE (130 degrees) at 9 MPH (8 knots; 4.1 m/s)
Visibility: 6 or more miles (10+ km)
Ceiling: 3000 feet AGL
Clouds: overcast cloud deck at 3000 feet AGL
Weather: no significant weather observed at this time

METAR text: UKBB 161300Z 13004MPS 9999 OVC030 10/08 Q1025 R18L/CLRD// R18R/290050 NOSIG
Conditions at: UKBB (BORISPOL'/KIEV , UA) observed 1300 UTC 16 November 2019
Temperature: 10.0°C (50°F)
Dewpoint: 8.0°C (46°F) [RH = 87%]
Pressure (altimeter): 30.27 inches Hg (1025.0 mb)
Winds: from the SE (130 degrees) at 9 MPH (8 knots; 4.1 m/s)
Visibility: 6 or more miles (10+ km)
Ceiling: 3000 feet AGL
Clouds: overcast cloud deck at 3000 feet AGL
Weather: no significant weather observed at this time

METAR text: UKBB 161230Z 13004MPS 9999 OVC030 11/08 Q1025 R88/290050 NOSIG
Conditions at: UKBB (BORISPOL'/KIEV , UA) observed 1230 UTC 16 November 2019
Temperature: 11.0°C (52°F)
Dewpoint: 8.0°C (46°F) [RH = 82%]
Pressure (altimeter): 30.27 inches Hg (1025.0 mb)
Winds: from the SE (130 degrees) at 9 MPH (8 knots; 4.1 m/s)
Visibility: 6 or more miles (10+ km)
Ceiling: 3000 feet AGL
Clouds: overcast cloud deck at 3000 feet AGL
Weather: no significant weather observed at this time

METAR text: UKBB 161200Z 14004MPS 9999 OVC016 11/08 Q1024 R88/290050 NOSIG
Conditions at: UKBB (BORISPOL'/KIEV , UA) observed 1200 UTC 16 November 2019
Temperature: 11.0°C (52°F)
Dewpoint: 8.0°C (46°F) [RH = 82%]
Pressure (altimeter): 30.24 inches Hg (1024.0 mb)
Winds: from the SE (140 degrees) at 9 MPH (8 knots; 4.1 m/s)
Visibility: 6 or more miles (10+ km)
Ceiling: 1600 feet AGL
Clouds: overcast cloud deck at 1600 feet AGL
Weather: no significant weather observed at this time

METAR text: UKBB 161130Z 14003MPS 9999 OVC014 11/08 Q1024 R88/290050 NOSIG
Conditions at: UKBB (BORISPOL'/KIEV , UA) observed 1130 UTC 16 November 2019
Temperature: 11.0°C (52°F)
Dewpoint: 8.0°C (46°F) [RH = 82%]
Pressure (altimeter): 30.24 inches Hg (1024.0 mb)
Winds: from the SE (140 degrees) at 7 MPH (6 knots; 3.1 m/s)
Visibility: 6 or more miles (10+ km)
Ceiling: 1400 feet AGL
Clouds: overcast cloud deck at 1400 feet AGL
Weather: no significant weather observed at this time

METAR text: UKBB 161100Z 15003MPS 9999 OVC012 11/08 Q1024 R88/290050 NOSIG
Conditions at: UKBB (BORISPOL'/KIEV , UA) observed 1100 UTC 16 November 2019
Temperature: 11.0°C (52°F)
Dewpoint: 8.0°C (46°F) [RH = 82%]
Pressure (altimeter): 30.24 inches Hg (1024.0 mb)
Winds: from the SSE (150 degrees) at 7 MPH (6 knots; 3.1 m/s)
Visibility: 6 or more miles (10+ km)
Ceiling: 1200 feet AGL
Clouds: overcast cloud deck at 1200 feet AGL
Weather: no significant weather observed at this time

METAR text: UKBB 161030Z 15003MPS 9999 OVC012 10/08 Q1025 R88/290050 NOSIG
Conditions at: UKBB (BORISPOL'/KIEV , UA) observed 1030 UTC 16 November 2019
Temperature: 10.0°C (50°F)
Dewpoint: 8.0°C (46°F) [RH = 87%]
Pressure (altimeter): 30.27 inches Hg (1025.0 mb)
Winds: from the SSE (150 degrees) at 7 MPH (6 knots; 3.1 m/s)
Visibility: 6 or more miles (10+ km)
Ceiling: 1200 feet AGL
Clouds: overcast cloud deck at 1200 feet AGL
Weather: no significant weather observed at this time

METAR text: UKBB 161000Z 15002MPS 9000 OVC012 09/07 Q1025 R88/290050 NOSIG
Conditions at: UKBB (BORISPOL'/KIEV , UA) observed 1000 UTC 16 November 2019
Temperature: 9.0°C (48°F)
Dewpoint: 7.0°C (45°F) [RH = 87%]
Pressure (altimeter): 30.27 inches Hg (1025.0 mb)
Winds: from the SSE (150 degrees) at 5 MPH (4 knots; 2.1 m/s)
Visibility: 6 miles ( 9 km)
Ceiling: 1200 feet AGL
Clouds: overcast cloud deck at 1200 feet AGL
Weather: no significant weather observed at this time

METAR text: UKBB 160930Z 14003MPS 9000 -RA OVC012 08/07 Q1025 R88/290050 NOSIG
Conditions at: UKBB (BORISPOL'/KIEV , UA) observed 0930 UTC 16 November 2019
Temperature: 8.0°C (46°F)
Dewpoint: 7.0°C (45°F) [RH = 93%]
Pressure (altimeter): 30.27 inches Hg (1025.0 mb)
Winds: from the SE (140 degrees) at 7 MPH (6 knots; 3.1 m/s)
Visibility: 6 miles ( 9 km)
Ceiling: 1200 feet AGL
Clouds: overcast cloud deck at 1200 feet AGL
Weather: -RA  (light rain)

METAR text: UKBB 160900Z 14004MPS 7000 -RA OVC014 08/07 Q1025 R88/290050 NOSIG
Conditions at: UKBB (BORISPOL'/KIEV , UA) observed 0900 UTC 16 November 2019
Temperature: 8.0°C (46°F)
Dewpoint: 7.0°C (45°F) [RH = 93%]
Pressure (altimeter): 30.27 inches Hg (1025.0 mb)
Winds: from the SE (140 degrees) at 9 MPH (8 knots; 4.1 m/s)
Visibility: 4 miles ( 7 km)
Ceiling: 1400 feet AGL
Clouds: overcast cloud deck at 1400 feet AGL
Weather: -RA  (light rain)

METAR text: UKBB 160830Z 14003MPS 9000 OVC016 08/07 Q1025 R88/290050 NOSIG
Conditions at: UKBB (BORISPOL'/KIEV , UA) observed 0830 UTC 16 November 2019
Temperature: 8.0°C (46°F)
Dewpoint: 7.0°C (45°F) [RH = 93%]
Pressure (altimeter): 30.27 inches Hg (1025.0 mb)
Winds: from the SE (140 degrees) at 7 MPH (6 knots; 3.1 m/s)
Visibility: 6 miles ( 9 km)
Ceiling: 1600 feet AGL
Clouds: overcast cloud deck at 1600 feet AGL
Weather: no significant weather observed at this time

Forecast for: UKBB (BORISPOL'/KIEV , UA)
Text: TAF UKBB 171705Z 1718/1818 12003G08MPS 0400 FG VV002 TX10/1812Z TN04/1804Z
Forecast period: 1800 UTC 17 November 2019 to 0600 UTC 18 November 2019
Forecast type: FROM: standard forecast or significant change
Winds: from the ESE (120 degrees) at 7 MPH (6 knots; 3.1 m/s)
gusting to 18 MPH (16 knots; 8.2 m/s)
Visibility: 0.25 miles (0.40 km)
Ceiling: indefinite ceiling with vertical visibility of 200 feet AGL
Clouds: obscured sky
Weather: FG  (fog)
Text: TEMPO 1718/1806 2000 BR BKN005
Forecast period: 1800 UTC 17 November 2019 to 0600 UTC 18 November 2019
Forecast type: TEMPORARY: The following changes expected for less than half the time period
Visibility: 1.24 miles (2.00 km)
Ceiling: 500 feet AGL
Clouds: broken clouds at 500 feet AGL
Weather: BR  (mist)
Text: BECMG 1806/1808 15004G09MPS 5000 BR BKN007
Forecast period: 0600 to 1800 UTC 18 November 2019
Forecast type: BECOMING: Conditions expected to become as follows by 0800 UTC 18 November 2019
Winds: from the SSE (150 degrees) at 9 MPH (8 knots; 4.1 m/s)
gusting to 20 MPH (17 knots; 8.7 m/s)
Visibility: 3 miles (5 km)
Ceiling: 700 feet AGL
Clouds: broken clouds at 700 feet AGL
Weather: BR  (mist)